sensor_id;sensor_type;location;lat;lon;timestamp;pressure;altitude;pressure_sealevel;temperature;humidity
5146;BME280;2591;48.144;15.152;2022-12-29T00:00:31;77460.78;;;-144.65;100.00
5146;BME280;2591;48.144;15.152;2022-12-29T00:02:58;77462.84;;;-144.65;100.00
5146;BME280;2591;48.144;15.152;2022-12-29T00:05:27;77468.94;;;-144.65;100.00
5146;BME280;2591;48.144;15.152;2022-12-29T00:07:56;77471.00;;;-144.65;100.00
5146;BME280;2591;48.144;15.152;2022-12-29T00:10:23;77460.78;;;-144.65;100.00
5146;BME280;2591;48.144;15.152;2022-12-29T00:12:51;77458.75;;;-144.65;100.00
5146;BME280;2591;48.144;15.152;2022-12-29T00:15:37;77460.78;;;-144.65;100.00
5146;BME280;2591;48.144;15.152;2022-12-29T00:18:05;77452.63;;;-144.65;100.00
5146;BME280;2591;48.144;15.152;2022-12-29T00:20:33;77460.78;;;-144.65;100.00
5146;BME280;2591;48.144;15.152;2022-12-29T00:23:21;77479.16;;;-144.65;100.00
5146;BME280;2591;48.144;15.152;2022-12-29T00:26:12;77481.19;;;-144.65;100.00
5146;BME280;2591;48.144;15.152;2022-12-29T00:28:59;77481.19;;;-144.65;100.00
5146;BME280;2591;48.144;15.152;2022-12-29T00:31:44;77487.31;;;-144.65;100.00
5146;BME280;2591;48.144;15.152;2022-12-29T00:34:26;77487.31;;;-144.65;100.00
5146;BME280;2591;48.144;15.152;2022-12-29T00:37:11;77497.50;;;-144.65;100.00
5146;BME280;2591;48.144;15.152;2022-12-29T00:39:41;77503.63;;;-144.65;100.00
5146;BME280;2591;48.144;15.152;2022-12-29T00:42:26;77513.81;;;-144.65;100.00
5146;BME280;2591;48.144;15.152;2022-12-29T00:45:11;77517.91;;;-144.65;100.00
5146;BME280;2591;48.144;15.152;2022-12-29T00:47:39;77517.91;;;-144.65;100.00
5146;BME280;2591;48.144;15.152;2022-12-29T00:50:07;77511.78;;;-144.65;100.00
5146;BME280;2591;48.144;15.152;2022-12-29T00:52:34;77509.75;;;-144.65;100.00
5146;BME280;2591;48.144;15.152;2022-12-29T00:55:04;77501.59;;;-144.65;100.00
5146;BME280;2591;48.144;15.152;2022-12-29T00:57:32;77497.50;;;-144.65;100.00
5146;BME280;2591;48.144;15.152;2022-12-29T01:00:00;77493.44;;;-144.65;100.00
5146;BME280;2591;48.144;15.152;2022-12-29T01:02:28;77493.44;;;-144.65;100.00
5146;BME280;2591;48.144;15.152;2022-12-29T01:04:56;77491.38;;;-144.65;100.00
5146;BME280;2591;48.144;15.152;2022-12-29T01:07:24;77499.53;;;-144.65;100.00
5146;BME280;2591;48.144;15.152;2022-12-29T01:09:51;77505.66;;;-144.65;100.00
5146;BME280;2591;48.144;15.152;2022-12-29T01:12:38;77503.63;;;-144.65;100.00
5146;BME280;2591;48.144;15.152;2022-12-29T01:15:11;77495.47;;;-144.65;100.00
5146;BME280;2591;48.144;15.152;2022-12-29T01:17:39;77493.44;;;-144.65;100.00
5146;BME280;2591;48.144;15.152;2022-12-29T01:20:08;77485.28;;;-144.65;100.00
5146;BME280;2591;48.144;15.152;2022-12-29T01:22:37;77477.09;;;-144.65;100.00
5146;BME280;2591;48.144;15.152;2022-12-29T01:25:06;77473.03;;;-144.65;100.00
5146;BME280;2591;48.144;15.152;2022-12-29T01:27:34;77477.09;;;-144.65;100.00
5146;BME280;2591;48.144;15.152;2022-12-29T01:30:05;77468.94;;;-144.65;100.00
5146;BME280;2591;48.144;15.152;2022-12-29T01:32:33;77460.78;;;-144.65;100.00
5146;BME280;2591;48.144;15.152;2022-12-29T01:35:01;77452.63;;;-144.65;100.00
5146;BME280;2591;48.144;15.152;2022-12-29T01:37:29;77464.88;;;-144.65;100.00
5146;BME280;2591;48.144;15.152;2022-12-29T01:39:56;77473.03;;;-144.65;100.00
5146;BME280;2591;48.144;15.152;2022-12-29T01:42:24;77473.03;;;-144.65;100.00
5146;BME280;2591;48.144;15.152;2022-12-29T01:44:55;77466.91;;;-144.65;100.00
5146;BME280;2591;48.144;15.152;2022-12-29T01:47:30;77460.78;;;-144.65;100.00
5146;BME280;2591;48.144;15.152;2022-12-29T01:50:02;77454.69;;;-144.65;100.00
5146;BME280;2591;48.144;15.152;2022-12-29T01:52:33;77444.47;;;-144.65;100.00
5146;BME280;2591;48.144;15.152;2022-12-29T01:55:03;77440.41;;;-144.65;100.00
5146;BME280;2591;48.144;15.152;2022-12-29T01:57:34;77448.56;;;-144.65;100.00
5146;BME280;2591;48.144;15.152;2022-12-29T02:00:06;77448.56;;;-144.65;100.00
5146;BME280;2591;48.144;15.152;2022-12-29T02:02:37;77438.34;;;-144.65;100.00
5146;BME280;2591;48.144;15.152;2022-12-29T02:05:10;77434.28;;;-144.65;100.00
5146;BME280;2591;48.144;15.152;2022-12-29T02:07:39;77420.00;;;-144.65;100.00
5146;BME280;2591;48.144;15.152;2022-12-29T02:10:08;77417.97;;;-144.65;100.00
5146;BME280;2591;48.144;15.152;2022-12-29T02:12:36;77424.09;;;-144.65;100.00
5146;BME280;2591;48.144;15.152;2022-12-29T02:15:05;77428.16;;;-144.65;100.00
5146;BME280;2591;48.144;15.152;2022-12-29T02:17:48;77420.00;;;-144.65;100.00
5146;BME280;2591;48.144;15.152;2022-12-29T02:23:33;77405.72;;;-144.65;100.00
5146;BME280;2591;48.144;15.152;2022-12-29T02:26:20;77411.84;;;-144.65;100.00
5146;BME280;2591;48.144;15.152;2022-12-29T02:29:30;77417.97;;;-144.65;100.00
5146;BME280;2591;48.144;15.152;2022-12-29T02:32:10;77411.84;;;-144.65;100.00
5146;BME280;2591;48.144;15.152;2022-12-29T02:34:48;77411.84;;;-144.65;100.00
5146;BME280;2591;48.144;15.152;2022-12-29T02:37:24;77411.84;;;-144.65;100.00
5146;BME280;2591;48.144;15.152;2022-12-29T02:40:01;77415.91;;;-144.65;100.00
5146;BME280;2591;48.144;15.152;2022-12-29T02:42:36;77415.91;;;-144.65;100.00
5146;BME280;2591;48.144;15.152;2022-12-29T02:45:12;77409.81;;;-144.65;100.00
5146;BME280;2591;48.144;15.152;2022-12-29T02:47:47;77407.75;;;-144.65;100.00
5146;BME280;2591;48.144;15.152;2022-12-29T02:50:20;77415.91;;;-144.65;100.00
5146;BME280;2591;48.144;15.152;2022-12-29T02:52:54;77415.91;;;-144.65;100.00
5146;BME280;2591;48.144;15.152;2022-12-29T02:55:22;77417.97;;;-144.65;100.00
5146;BME280;2591;48.144;15.152;2022-12-29T02:58:08;77409.81;;;-144.65;100.00
5146;BME280;2591;48.144;15.152;2022-12-29T03:00:48;77415.91;;;-144.65;100.00
5146;BME280;2591;48.144;15.152;2022-12-29T03:03:31;77411.84;;;-144.65;100.00
5146;BME280;2591;48.144;15.152;2022-12-29T03:06:15;77403.69;;;-144.65;100.00
5146;BME280;2591;48.144;15.152;2022-12-29T03:08:54;77399.59;;;-144.65;100.00
5146;BME280;2591;48.144;15.152;2022-12-29T03:11:28;77399.59;;;-144.65;100.00
5146;BME280;2591;48.144;15.152;2022-12-29T03:14:24;77405.72;;;-144.65;100.00
5146;BME280;2591;48.144;15.152;2022-12-29T03:17:18;77407.75;;;-144.65;100.00
5146;BME280;2591;48.144;15.152;2022-12-29T03:19:59;77403.69;;;-144.65;100.00
5146;BME280;2591;48.144;15.152;2022-12-29T03:22:31;77405.72;;;-144.65;100.00
5146;BME280;2591;48.144;15.152;2022-12-29T03:25:05;77405.72;;;-144.65;100.00
5146;BME280;2591;48.144;15.152;2022-12-29T03:27:39;77407.75;;;-144.65;100.00
5146;BME280;2591;48.144;15.152;2022-12-29T03:30:09;77415.91;;;-144.65;100.00
5146;BME280;2591;48.144;15.152;2022-12-29T03:32:40;77415.91;;;-144.65;100.00
5146;BME280;2591;48.144;15.152;2022-12-29T03:35:13;77413.88;;;-144.65;100.00
5146;BME280;2591;48.144;15.152;2022-12-29T03:37:45;77409.81;;;-144.65;100.00
5146;BME280;2591;48.144;15.152;2022-12-29T03:40:16;77411.84;;;-144.65;100.00
5146;BME280;2591;48.144;15.152;2022-12-29T03:42:45;77407.75;;;-144.65;100.00
5146;BME280;2591;48.144;15.152;2022-12-29T03:45:14;77397.56;;;-144.65;100.00
5146;BME280;2591;48.144;15.152;2022-12-29T03:47:43;77401.66;;;-144.65;100.00
5146;BME280;2591;48.144;15.152;2022-12-29T03:50:14;77411.84;;;-144.65;100.00
5146;BME280;2591;48.144;15.152;2022-12-29T03:52:43;77411.84;;;-144.65;100.00
5146;BME280;2591;48.144;15.152;2022-12-29T03:55:11;77407.75;;;-144.65;100.00
5146;BME280;2591;48.144;15.152;2022-12-29T03:57:40;77415.91;;;-144.65;100.00
5146;BME280;2591;48.144;15.152;2022-12-29T04:00:09;77417.97;;;-144.65;100.00
5146;BME280;2591;48.144;15.152;2022-12-29T04:02:37;77420.00;;;-144.65;100.00
5146;BME280;2591;48.144;15.152;2022-12-29T04:05:06;77424.09;;;-144.65;100.00
5146;BME280;2591;48.144;15.152;2022-12-29T04:07:35;77424.09;;;-144.65;100.00
5146;BME280;2591;48.144;15.152;2022-12-29T04:10:04;77424.09;;;-144.65;100.00
5146;BME280;2591;48.144;15.152;2022-12-29T04:12:32;77420.00;;;-144.65;100.00
5146;BME280;2591;48.144;15.152;2022-12-29T04:15:00;77424.09;;;-144.65;100.00
5146;BME280;2591;48.144;15.152;2022-12-29T04:17:27;77426.13;;;-144.65;100.00
5146;BME280;2591;48.144;15.152;2022-12-29T04:19:55;77426.13;;;-144.65;100.00
5146;BME280;2591;48.144;15.152;2022-12-29T04:22:44;77436.31;;;-144.65;100.00
5146;BME280;2591;48.144;15.152;2022-12-29T04:25:12;77444.47;;;-144.65;100.00
5146;BME280;2591;48.144;15.152;2022-12-29T04:27:40;77444.47;;;-144.65;100.00
5146;BME280;2591;48.144;15.152;2022-12-29T04:30:09;77450.59;;;-144.65;100.00
5146;BME280;2591;48.144;15.152;2022-12-29T04:32:37;77438.34;;;-144.65;100.00
5146;BME280;2591;48.144;15.152;2022-12-29T04:35:06;77444.47;;;-144.65;100.00
5146;BME280;2591;48.144;15.152;2022-12-29T04:37:34;77438.34;;;-144.65;100.00
5146;BME280;2591;48.144;15.152;2022-12-29T04:40:04;77444.47;;;-144.65;100.00
5146;BME280;2591;48.144;15.152;2022-12-29T04:42:32;77440.41;;;-144.65;100.00
5146;BME280;2591;48.144;15.152;2022-12-29T04:45:00;77446.50;;;-144.65;100.00
5146;BME280;2591;48.144;15.152;2022-12-29T04:47:27;77440.41;;;-144.65;100.00
5146;BME280;2591;48.144;15.152;2022-12-29T04:49:55;77446.50;;;-144.65;100.00
5146;BME280;2591;48.144;15.152;2022-12-29T04:52:23;77444.47;;;-144.65;100.00
5146;BME280;2591;48.144;15.152;2022-12-29T04:54:51;77448.56;;;-144.65;100.00
5146;BME280;2591;48.144;15.152;2022-12-29T04:57:20;77460.78;;;-144.65;100.00
5146;BME280;2591;48.144;15.152;2022-12-29T04:59:48;77452.63;;;-144.65;100.00
5146;BME280;2591;48.144;15.152;2022-12-29T05:02:16;77456.72;;;-144.65;100.00
5146;BME280;2591;48.144;15.152;2022-12-29T05:04:45;77452.63;;;-144.65;100.00
5146;BME280;2591;48.144;15.152;2022-12-29T05:07:13;77452.63;;;-144.65;100.00
5146;BME280;2591;48.144;15.152;2022-12-29T05:09:41;77462.84;;;-144.65;100.00
5146;BME280;2591;48.144;15.152;2022-12-29T05:12:09;77456.72;;;-144.65;100.00
5146;BME280;2591;48.144;15.152;2022-12-29T05:14:38;77456.72;;;-144.65;100.00
5146;BME280;2591;48.144;15.152;2022-12-29T05:17:06;77473.03;;;-144.65;100.00
5146;BME280;2591;48.144;15.152;2022-12-29T05:19:34;77475.06;;;-144.65;100.00
5146;BME280;2591;48.144;15.152;2022-12-29T05:22:02;77475.06;;;-144.65;100.00
5146;BME280;2591;48.144;15.152;2022-12-29T05:24:29;77473.03;;;-144.65;100.00
5146;BME280;2591;48.144;15.152;2022-12-29T05:26:57;77473.03;;;-144.65;100.00
5146;BME280;2591;48.144;15.152;2022-12-29T05:29:25;77481.19;;;-144.65;100.00
5146;BME280;2591;48.144;15.152;2022-12-29T05:31:54;77477.09;;;-144.65;100.00
5146;BME280;2591;48.144;15.152;2022-12-29T05:34:22;77485.28;;;-144.65;100.00
5146;BME280;2591;48.144;15.152;2022-12-29T05:36:50;77497.50;;;-144.65;100.00
5146;BME280;2591;48.144;15.152;2022-12-29T05:39:18;77499.53;;;-144.65;100.00
5146;BME280;2591;48.144;15.152;2022-12-29T05:41:46;77493.44;;;-144.65;100.00
5146;BME280;2591;48.144;15.152;2022-12-29T05:44:14;77491.38;;;-144.65;100.00
5146;BME280;2591;48.144;15.152;2022-12-29T05:46:43;77493.44;;;-144.65;100.00
5146;BME280;2591;48.144;15.152;2022-12-29T05:49:12;77489.34;;;-144.65;100.00
5146;BME280;2591;48.144;15.152;2022-12-29T05:51:40;77493.44;;;-144.65;100.00
5146;BME280;2591;48.144;15.152;2022-12-29T05:54:08;77499.53;;;-144.65;100.00
5146;BME280;2591;48.144;15.152;2022-12-29T05:56:36;77497.50;;;-144.65;100.00
5146;BME280;2591;48.144;15.152;2022-12-29T05:59:04;77495.47;;;-144.65;100.00
5146;BME280;2591;48.144;15.152;2022-12-29T06:01:32;77485.28;;;-144.65;100.00
5146;BME280;2591;48.144;15.152;2022-12-29T06:04:01;77497.50;;;-144.65;100.00
5146;BME280;2591;48.144;15.152;2022-12-29T06:06:30;77489.34;;;-144.65;100.00
5146;BME280;2591;48.144;15.152;2022-12-29T06:08:58;77493.44;;;-144.65;100.00
5146;BME280;2591;48.144;15.152;2022-12-29T06:11:26;77491.38;;;-144.65;100.00
5146;BME280;2591;48.144;15.152;2022-12-29T06:13:55;77497.50;;;-144.65;100.00
5146;BME280;2591;48.144;15.152;2022-12-29T06:16:25;77499.53;;;-144.65;100.00
5146;BME280;2591;48.144;15.152;2022-12-29T06:18:53;77491.38;;;-144.65;100.00
5146;BME280;2591;48.144;15.152;2022-12-29T06:21:21;77491.38;;;-144.65;100.00
5146;BME280;2591;48.144;15.152;2022-12-29T06:23:50;77477.09;;;-144.65;100.00
5146;BME280;2591;48.144;15.152;2022-12-29T06:26:18;77485.28;;;-144.65;100.00
5146;BME280;2591;48.144;15.152;2022-12-29T06:28:46;77477.09;;;-144.65;100.00
5146;BME280;2591;48.144;15.152;2022-12-29T06:31:14;77477.09;;;-144.65;100.00
5146;BME280;2591;48.144;15.152;2022-12-29T06:33:42;77477.09;;;-144.65;100.00
5146;BME280;2591;48.144;15.152;2022-12-29T06:36:15;77473.03;;;-144.65;100.00
5146;BME280;2591;48.144;15.152;2022-12-29T06:38:43;77473.03;;;-144.65;100.00
5146;BME280;2591;48.144;15.152;2022-12-29T06:41:12;77466.91;;;-144.65;100.00
5146;BME280;2591;48.144;15.152;2022-12-29T06:43:40;77464.88;;;-144.65;100.00
5146;BME280;2591;48.144;15.152;2022-12-29T06:46:08;77462.84;;;-144.65;100.00
5146;BME280;2591;48.144;15.152;2022-12-29T06:48:36;77460.78;;;-144.65;100.00
5146;BME280;2591;48.144;15.152;2022-12-29T06:51:04;77458.75;;;-144.65;100.00
5146;BME280;2591;48.144;15.152;2022-12-29T06:53:32;77452.63;;;-144.65;100.00
5146;BME280;2591;48.144;15.152;2022-12-29T06:55:59;77452.63;;;-144.65;100.00
5146;BME280;2591;48.144;15.152;2022-12-29T06:58:29;77454.69;;;-144.65;100.00
5146;BME280;2591;48.144;15.152;2022-12-29T07:00:56;77450.59;;;-144.65;100.00
5146;BME280;2591;48.144;15.152;2022-12-29T07:03:24;77446.50;;;-144.65;100.00
5146;BME280;2591;48.144;15.152;2022-12-29T07:05:52;77448.56;;;-144.65;100.00
5146;BME280;2591;48.144;15.152;2022-12-29T07:08:20;77448.56;;;-144.65;100.00
5146;BME280;2591;48.144;15.152;2022-12-29T07:10:48;77446.50;;;-144.65;100.00
5146;BME280;2591;48.144;15.152;2022-12-29T07:13:16;77448.56;;;-144.65;100.00
5146;BME280;2591;48.144;15.152;2022-12-29T07:15:45;77438.34;;;-144.65;100.00
5146;BME280;2591;48.144;15.152;2022-12-29T07:18:13;77432.25;;;-144.65;100.00
5146;BME280;2591;48.144;15.152;2022-12-29T07:20:42;77426.13;;;-144.65;100.00
5146;BME280;2591;48.144;15.152;2022-12-29T07:23:10;77417.97;;;-144.65;100.00
5146;BME280;2591;48.144;15.152;2022-12-29T07:25:38;77401.66;;;-144.65;100.00
5146;BME280;2591;48.144;15.152;2022-12-29T07:28:07;77399.59;;;-144.65;100.00
5146;BME280;2591;48.144;15.152;2022-12-29T07:30:36;77393.47;;;-144.65;100.00
5146;BME280;2591;48.144;15.152;2022-12-29T07:33:05;77383.28;;;-144.65;100.00
5146;BME280;2591;48.144;15.152;2022-12-29T07:35:33;77373.09;;;-144.65;100.00
5146;BME280;2591;48.144;15.152;2022-12-29T07:38:01;77366.97;;;-144.65;100.00
5146;BME280;2591;48.144;15.152;2022-12-29T07:40:29;77369.00;;;-144.65;100.00
5146;BME280;2591;48.144;15.152;2022-12-29T07:42:57;77362.88;;;-144.65;100.00
5146;BME280;2591;48.144;15.152;2022-12-29T07:45:25;77350.66;;;-144.65;100.00
5146;BME280;2591;48.144;15.152;2022-12-29T07:47:53;77338.41;;;-144.65;100.00
5146;BME280;2591;48.144;15.152;2022-12-29T07:50:22;77334.34;;;-144.65;100.00
5146;BME280;2591;48.144;15.152;2022-12-29T07:52:50;77336.38;;;-144.65;100.00
5146;BME280;2591;48.144;15.152;2022-12-29T07:55:17;77326.19;;;-144.65;100.00
5146;BME280;2591;48.144;15.152;2022-12-29T07:57:45;77328.22;;;-144.65;100.00
5146;BME280;2591;48.144;15.152;2022-12-29T08:00:14;77330.25;;;-144.65;100.00
5146;BME280;2591;48.144;15.152;2022-12-29T08:02:42;77322.09;;;-144.65;100.00
5146;BME280;2591;48.144;15.152;2022-12-29T08:05:10;77322.09;;;-144.65;100.00
5146;BME280;2591;48.144;15.152;2022-12-29T08:07:39;77313.94;;;-144.65;100.00
5146;BME280;2591;48.144;15.152;2022-12-29T08:10:07;77313.94;;;-144.65;100.00
5146;BME280;2591;48.144;15.152;2022-12-29T08:12:37;77313.94;;;-144.65;100.00
5146;BME280;2591;48.144;15.152;2022-12-29T08:15:06;77309.88;;;-144.65;100.00
5146;BME280;2591;48.144;15.152;2022-12-29T08:17:35;77301.72;;;-144.65;100.00
5146;BME280;2591;48.144;15.152;2022-12-29T08:20:04;77293.53;;;-144.65;100.00
5146;BME280;2591;48.144;15.152;2022-12-29T08:22:32;77293.53;;;-144.65;100.00
5146;BME280;2591;48.144;15.152;2022-12-29T08:25:02;77279.28;;;-144.65;100.00
5146;BME280;2591;48.144;15.152;2022-12-29T08:27:30;77262.97;;;-144.65;100.00
5146;BME280;2591;48.144;15.152;2022-12-29T08:29:58;77244.59;;;-144.65;100.00
5146;BME280;2591;48.144;15.152;2022-12-29T08:32:27;77220.13;;;-144.65;100.00
5146;BME280;2591;48.144;15.152;2022-12-29T08:34:55;77199.72;;;-144.65;100.00
5146;BME280;2591;48.144;15.152;2022-12-29T08:37:23;77175.25;;;-144.65;100.00
5146;BME280;2591;48.144;15.152;2022-12-29T08:39:56;77142.63;;;-144.65;100.00
5146;BME280;2591;48.144;15.152;2022-12-29T08:42:26;77122.22;;;-144.65;100.00
5146;BME280;2591;48.144;15.152;2022-12-29T08:44:57;77110.00;;;-144.65;100.00
5146;BME280;2591;48.144;15.152;2022-12-29T08:47:25;77087.56;;;-144.65;100.00
5146;BME280;2591;48.144;15.152;2022-12-29T08:49:53;77079.41;;;-144.65;100.00
5146;BME280;2591;48.144;15.152;2022-12-29T08:52:21;77067.16;;;-144.65;100.00
5146;BME280;2591;48.144;15.152;2022-12-29T08:54:49;77052.91;;;-144.65;100.00
5146;BME280;2591;48.144;15.152;2022-12-29T08:57:17;77050.84;;;-144.65;100.00
5146;BME280;2591;48.144;15.152;2022-12-29T08:59:46;77038.63;;;-144.65;100.00
5146;BME280;2591;48.144;15.152;2022-12-29T09:02:14;77032.50;;;-144.65;100.00
5146;BME280;2591;48.144;15.152;2022-12-29T09:04:50;77022.31;;;-144.65;100.00
5146;BME280;2591;48.144;15.152;2022-12-29T09:07:18;77020.25;;;-144.65;100.00
5146;BME280;2591;48.144;15.152;2022-12-29T09:09:46;77006.00;;;-144.65;100.00
5146;BME280;2591;48.144;15.152;2022-12-29T09:12:14;76983.56;;;-144.65;100.00
5146;BME280;2591;48.144;15.152;2022-12-29T09:14:41;76967.25;;;-144.65;100.00
5146;BME280;2591;48.144;15.152;2022-12-29T09:17:12;76971.31;;;-144.65;100.00
5146;BME280;2591;48.144;15.152;2022-12-29T09:19:57;76959.09;;;-144.65;100.00
5146;BME280;2591;48.144;15.152;2022-12-29T09:22:25;76950.94;;;-144.65;100.00
5146;BME280;2591;48.144;15.152;2022-12-29T09:24:53;76946.84;;;-144.65;100.00
5146;BME280;2591;48.144;15.152;2022-12-29T09:27:20;76940.72;;;-144.65;100.00
5146;BME280;2591;48.144;15.152;2022-12-29T09:29:49;76918.31;;;-144.65;100.00
5146;BME280;2591;48.144;15.152;2022-12-29T09:32:18;76916.25;;;-144.65;100.00
5146;BME280;2591;48.144;15.152;2022-12-29T09:34:49;76922.38;;;-144.65;100.00
5146;BME280;2591;48.144;15.152;2022-12-29T09:37:17;76906.06;;;-144.65;100.00
5146;BME280;2591;48.144;15.152;2022-12-29T09:39:45;76893.81;;;-144.65;100.00
5146;BME280;2591;48.144;15.152;2022-12-29T09:42:25;76877.50;;;-144.65;100.00
5146;BME280;2591;48.144;15.152;2022-12-29T09:45:03;76836.72;;;-144.65;100.00
5146;BME280;2591;48.144;15.152;2022-12-29T09:47:35;76787.78;;;-144.65;100.00
5146;BME280;2591;48.144;15.152;2022-12-29T09:50:08;76759.25;;;-144.65;100.00
5146;BME280;2591;48.144;15.152;2022-12-29T09:52:40;76734.78;;;-144.65;100.00
5146;BME280;2591;48.144;15.152;2022-12-29T09:55:14;76716.41;;;-144.65;100.00
5146;BME280;2591;48.144;15.152;2022-12-29T09:57:45;76677.69;;;-144.65;100.00
5146;BME280;2591;48.144;15.152;2022-12-29T10:00:16;76645.03;;;-144.65;100.00
5146;BME280;2591;48.144;15.152;2022-12-29T10:02:49;76620.56;;;-144.65;100.00
5146;BME280;2591;48.144;15.152;2022-12-29T10:05:29;76600.19;;;-144.65;100.00
5146;BME280;2591;48.144;15.152;2022-12-29T10:08:06;76608.34;;;-144.65;100.00
5146;BME280;2591;48.144;15.152;2022-12-29T10:10:46;76596.09;;;-144.65;100.00
5146;BME280;2591;48.144;15.152;2022-12-29T10:13:26;76596.09;;;-144.65;100.00
5146;BME280;2591;48.144;15.152;2022-12-29T10:16:02;76577.75;;;-144.65;99.74
5146;BME280;2591;48.144;15.152;2022-12-29T10:18:57;76583.88;;;-144.65;97.34
5146;BME280;2591;48.144;15.152;2022-12-29T10:21:40;76598.16;;;-144.65;95.06
5146;BME280;2591;48.144;15.152;2022-12-29T10:24:14;76592.03;;;-144.65;95.00
5146;BME280;2591;48.144;15.152;2022-12-29T10:26:45;76594.06;;;-144.65;94.89
5146;BME280;2591;48.144;15.152;2022-12-29T10:29:16;76587.94;;;-144.65;94.89
5146;BME280;2591;48.144;15.152;2022-12-29T10:31:49;76583.88;;;-144.65;93.35
5146;BME280;2591;48.144;15.152;2022-12-29T10:34:22;76577.75;;;-144.65;92.14
5146;BME280;2591;48.144;15.152;2022-12-29T10:36:57;76557.38;;;-144.65;91.49
5146;BME280;2591;48.144;15.152;2022-12-29T10:39:30;76553.28;;;-144.65;90.36
5146;BME280;2591;48.144;15.152;2022-12-29T10:42:08;76543.09;;;-144.65;89.40
5146;BME280;2591;48.144;15.152;2022-12-29T10:44:37;76522.69;;;-144.65;87.91
5146;BME280;2591;48.144;15.152;2022-12-29T10:47:11;76510.47;;;-144.65;87.49
5146;BME280;2591;48.144;15.152;2022-12-29T10:49:42;76496.19;;;-144.65;86.76
5146;BME280;2591;48.144;15.152;2022-12-29T10:52:14;76477.84;;;-144.65;86.17
5146;BME280;2591;48.144;15.152;2022-12-29T10:54:46;76461.53;;;-144.65;85.25
5146;BME280;2591;48.144;15.152;2022-12-29T10:57:24;76455.41;;;-144.65;85.39
5146;BME280;2591;48.144;15.152;2022-12-29T10:59:53;76416.69;;;-144.65;87.27
5146;BME280;2591;48.144;15.152;2022-12-29T11:02:42;76418.72;;;-144.65;85.32
5146;BME280;2591;48.144;15.152;2022-12-29T11:05:19;76428.91;;;-144.65;85.24
5146;BME280;2591;48.144;15.152;2022-12-29T11:07:52;76428.91;;;-144.65;84.99
5146;BME280;2591;48.144;15.152;2022-12-29T11:10:30;76406.47;;;-144.65;84.05
5146;BME280;2591;48.144;15.152;2022-12-29T11:13:04;76345.31;;;-144.65;83.47
5146;BME280;2591;48.144;15.152;2022-12-29T11:15:38;76302.50;;;-144.65;80.62
5146;BME280;2591;48.144;15.152;2022-12-29T11:18:18;76314.72;;;-144.65;79.27
5146;BME280;2591;48.144;15.152;2022-12-29T11:20:49;76341.22;;;-144.65;79.27
5146;BME280;2591;48.144;15.152;2022-12-29T11:23:30;76361.63;;;-144.65;79.21
5146;BME280;2591;48.144;15.152;2022-12-29T11:26:07;76373.84;;;-144.65;79.91
5146;BME280;2591;48.144;15.152;2022-12-29T11:28:40;76375.91;;;-144.65;80.89
5146;BME280;2591;48.144;15.152;2022-12-29T11:31:08;76375.91;;;-144.65;81.78
5146;BME280;2591;48.144;15.152;2022-12-29T11:33:38;76379.97;;;-144.65;81.64
5146;BME280;2591;48.144;15.152;2022-12-29T11:36:11;76384.06;;;-144.65;82.24
5146;BME280;2591;48.144;15.152;2022-12-29T11:38:42;76369.78;;;-144.65;84.22
5146;BME280;2591;48.144;15.152;2022-12-29T11:41:19;76353.47;;;-144.65;87.02
5146;BME280;2591;48.144;15.152;2022-12-29T11:43:49;76355.50;;;-144.65;87.45
5146;BME280;2591;48.144;15.152;2022-12-29T11:46:19;76345.31;;;-144.65;87.32
5146;BME280;2591;48.144;15.152;2022-12-29T11:48:48;76345.31;;;-144.65;86.98
5146;BME280;2591;48.144;15.152;2022-12-29T11:51:23;76359.59;;;-144.65;85.99
5146;BME280;2591;48.144;15.152;2022-12-29T11:53:55;76367.75;;;-144.65;86.34
5146;BME280;2591;48.144;15.152;2022-12-29T11:56:34;76371.81;;;-144.65;87.66
5146;BME280;2591;48.144;15.152;2022-12-29T11:59:42;76371.81;;;-144.65;88.51
5146;BME280;2591;48.144;15.152;2022-12-29T12:02:24;76355.50;;;-144.65;89.39
5146;BME280;2591;48.144;15.152;2022-12-29T12:04:59;76351.44;;;-144.65;90.72
5146;BME280;2591;48.144;15.152;2022-12-29T12:07:38;76371.81;;;-144.65;89.89
5146;BME280;2591;48.144;15.152;2022-12-29T12:10:13;76379.97;;;-144.65;90.36
5146;BME280;2591;48.144;15.152;2022-12-29T12:12:47;76384.06;;;-144.65;90.79
5146;BME280;2591;48.144;15.152;2022-12-29T12:15:20;76384.06;;;-144.65;91.87
5146;BME280;2591;48.144;15.152;2022-12-29T12:17:54;76388.13;;;-144.65;92.95
5146;BME280;2591;48.144;15.152;2022-12-29T12:20:29;76373.84;;;-144.65;93.02
5146;BME280;2591;48.144;15.152;2022-12-29T12:23:10;76367.75;;;-144.65;92.43
5146;BME280;2591;48.144;15.152;2022-12-29T12:25:43;76377.94;;;-144.65;91.92
5146;BME280;2591;48.144;15.152;2022-12-29T12:28:20;76377.94;;;-144.65;92.15
5146;BME280;2591;48.144;15.152;2022-12-29T12:30:57;76379.97;;;-144.65;91.95
5146;BME280;2591;48.144;15.152;2022-12-29T12:33:29;76394.25;;;-144.65;92.05
5146;BME280;2591;48.144;15.152;2022-12-29T12:36:15;76392.22;;;-144.65;93.01
5146;BME280;2591;48.144;15.152;2022-12-29T12:38:55;76398.31;;;-144.65;93.17
5146;BME280;2591;48.144;15.152;2022-12-29T12:41:33;76390.16;;;-144.65;93.21
5146;BME280;2591;48.144;15.152;2022-12-29T12:44:11;76388.13;;;-144.65;92.31
5146;BME280;2591;48.144;15.152;2022-12-29T12:50:15;76363.66;;;-144.65;90.33
5146;BME280;2591;48.144;15.152;2022-12-29T12:52:59;76347.34;;;-144.65;89.77
5146;BME280;2591;48.144;15.152;2022-12-29T12:55:46;76335.13;;;-144.65;89.34
5146;BME280;2591;48.144;15.152;2022-12-29T12:58:23;76339.19;;;-144.65;88.79
5146;BME280;2591;48.144;15.152;2022-12-29T13:01:07;76349.38;;;-144.65;87.97
5146;BME280;2591;48.144;15.152;2022-12-29T13:03:49;76359.59;;;-144.65;87.96
5146;BME280;2591;48.144;15.152;2022-12-29T13:06:29;76351.44;;;-144.65;88.10
5146;BME280;2591;48.144;15.152;2022-12-29T13:09:22;76343.28;;;-144.65;87.36
5146;BME280;2591;48.144;15.152;2022-12-29T13:12:07;76365.69;;;-144.65;87.21
5146;BME280;2591;48.144;15.152;2022-12-29T13:14:46;76371.81;;;-144.65;87.25